createdAt,value
2023-05-04T00:01:11.642Z,6.47
2023-05-04T00:03:38.939Z,6.87
2023-05-04T00:06:05.988Z,7.07
2023-05-04T00:08:32.841Z,7.27
2023-05-04T00:10:59.698Z,8.43
2023-05-04T00:13:26.921Z,7.93
2023-05-04T00:15:53.802Z,8.27
2023-05-04T00:18:20.848Z,7.53
2023-05-04T00:20:47.741Z,6.63
2023-05-04T00:23:14.635Z,8.30
2023-05-04T00:25:41.422Z,7.10
2023-05-04T00:28:08.305Z,7.17
2023-05-04T00:30:35.116Z,6.53
2023-05-04T00:33:02.274Z,7.63
2023-05-04T00:35:31.817Z,7.83
2023-05-04T00:37:58.704Z,7.40
2023-05-04T00:40:25.719Z,6.50
2023-05-04T00:42:52.632Z,6.30
2023-05-04T00:45:19.540Z,7.30
2023-05-04T00:47:46.762Z,7.17
2023-05-04T00:50:14.575Z,6.33
2023-05-04T00:52:43.948Z,6.77
2023-05-04T00:55:11.652Z,7.40
2023-05-04T00:57:39.579Z,6.73
2023-05-04T01:00:08.816Z,7.07
2023-05-04T01:02:35.802Z,6.20
2023-05-04T01:05:03.029Z,7.07
2023-05-04T01:07:58.890Z,7.60
2023-05-04T01:10:53.537Z,7.40
2023-05-04T01:13:22.732Z,8.17
2023-05-04T01:15:50.982Z,9.07
2023-05-04T01:18:18.047Z,8.40
2023-05-04T01:20:44.913Z,8.10
2023-05-04T01:23:12.085Z,8.30
2023-05-04T01:25:52.277Z,8.53
2023-05-04T01:28:27.747Z,8.03
2023-05-04T01:30:57.895Z,8.77
2023-05-04T01:33:25.760Z,7.07
2023-05-04T01:35:52.765Z,7.73
2023-05-04T01:38:20.071Z,7.23
2023-05-04T01:40:46.953Z,7.30
2023-05-04T01:43:13.831Z,7.63
2023-05-04T01:45:40.670Z,8.57
2023-05-04T01:48:07.704Z,7.80
2023-05-04T01:50:34.571Z,8.77
2023-05-04T01:53:02.380Z,8.13
2023-05-04T01:55:29.213Z,7.80
2023-05-04T01:57:56.066Z,6.80
2023-05-04T02:00:23.063Z,7.60
2023-05-04T02:02:50.102Z,7.23
2023-05-04T02:05:19.338Z,6.77
2023-05-04T02:07:46.428Z,7.60
2023-05-04T02:10:13.344Z,7.33
2023-05-04T02:12:43.241Z,6.90
2023-05-04T02:15:10.620Z,6.80
2023-05-04T02:17:37.469Z,6.83
2023-05-04T02:20:05.302Z,7.47
2023-05-04T02:22:32.718Z,7.00
2023-05-04T02:24:59.546Z,6.70
2023-05-04T02:27:26.403Z,6.80
2023-05-04T02:29:53.220Z,6.10
2023-05-04T02:32:20.249Z,6.17
2023-05-04T02:34:47.245Z,7.60
2023-05-04T02:37:14.160Z,6.63
2023-05-04T02:39:40.989Z,6.80
2023-05-04T02:42:07.945Z,8.00
2023-05-04T02:44:34.829Z,6.20
2023-05-04T02:47:02.361Z,6.50
2023-05-04T02:49:30.509Z,6.60
2023-05-04T02:51:57.388Z,6.90
2023-05-04T02:54:24.230Z,6.40
2023-05-04T02:56:51.082Z,6.50
2023-05-04T02:59:17.958Z,6.93
2023-05-04T03:01:44.991Z,6.47
2023-05-04T03:04:11.960Z,6.80
2023-05-04T03:06:38.825Z,6.63
2023-05-04T03:09:05.862Z,7.20
2023-05-04T03:11:32.744Z,6.60
2023-05-04T03:13:59.585Z,6.30
2023-05-04T03:16:26.532Z,6.47
2023-05-04T03:21:35.371Z,5.60
2023-05-04T03:24:02.313Z,6.53
2023-05-04T03:26:29.209Z,6.57
2023-05-04T03:28:56.079Z,5.90
2023-05-04T03:31:23.251Z,6.97
2023-05-04T03:33:52.497Z,6.17
2023-05-04T03:36:20.153Z,5.83
2023-05-04T03:38:47.061Z,6.70
2023-05-04T03:41:13.971Z,7.30
2023-05-04T03:43:40.930Z,6.23
2023-05-04T03:46:08.121Z,7.10
2023-05-04T03:48:35.081Z,6.80
2023-05-04T03:51:02.105Z,7.07
2023-05-04T03:53:28.988Z,6.87
2023-05-04T03:55:56.466Z,7.17
2023-05-04T03:58:23.350Z,6.97
2023-05-04T04:00:50.289Z,7.97
2023-05-04T04:03:17.678Z,6.97
2023-05-04T04:05:44.801Z,7.67
2023-05-04T04:08:11.709Z,7.00
2023-05-04T04:10:38.583Z,6.70
2023-05-04T04:13:05.632Z,7.00
2023-05-04T04:15:32.600Z,6.73
2023-05-04T04:17:59.453Z,7.37
2023-05-04T04:20:26.641Z,6.47
2023-05-04T04:22:53.712Z,6.70
2023-05-04T04:25:20.691Z,6.83
2023-05-04T04:27:47.541Z,7.00
2023-05-04T04:30:14.723Z,7.10
2023-05-04T04:32:41.663Z,6.50
2023-05-04T04:35:09.054Z,7.10
2023-05-04T04:37:36.139Z,7.00
2023-05-04T04:40:04.364Z,8.90
2023-05-04T04:42:32.608Z,10.53
2023-05-04T04:44:59.684Z,9.20
2023-05-04T04:47:27.117Z,9.13
2023-05-04T04:49:54.233Z,7.20
2023-05-04T04:52:21.133Z,7.97
2023-05-04T04:54:48.009Z,8.30
2023-05-04T04:57:14.927Z,9.60
2023-05-04T04:59:41.807Z,9.77
2023-05-04T05:02:09.864Z,9.63
2023-05-04T05:04:39.741Z,10.10
2023-05-04T05:07:09.123Z,7.90
2023-05-04T05:09:36.149Z,9.30
2023-05-04T05:12:03.134Z,8.53
2023-05-04T05:14:31.862Z,7.70
2023-05-04T05:16:59.700Z,7.80
2023-05-04T05:19:26.686Z,6.90
2023-05-04T05:21:53.531Z,7.47
2023-05-04T05:24:20.490Z,7.97
2023-05-04T05:26:47.451Z,7.40
2023-05-04T05:29:14.367Z,7.70
2023-05-04T05:31:41.489Z,7.60
2023-05-04T05:34:08.328Z,7.30
2023-05-04T05:36:35.176Z,8.70
2023-05-04T05:39:02.028Z,7.77
2023-05-04T05:41:28.869Z,8.33
2023-05-04T05:43:56.146Z,8.37
2023-05-04T05:46:25.184Z,7.53
2023-05-04T05:48:52.125Z,9.40
2023-05-04T05:51:18.921Z,7.73
2023-05-04T05:53:45.761Z,7.47
2023-05-04T05:56:13.470Z,7.00
2023-05-04T05:58:40.434Z,7.50
2023-05-04T06:01:07.408Z,7.37
2023-05-04T06:03:34.416Z,7.23
2023-05-04T06:06:01.440Z,7.70
2023-05-04T06:08:28.284Z,7.10
2023-05-04T06:10:56.601Z,6.70
2023-05-04T06:13:23.561Z,8.50
2023-05-04T06:15:55.264Z,7.13
2023-05-04T06:18:22.144Z,6.73
2023-05-04T06:20:49.041Z,7.37
2023-05-04T06:23:16.724Z,6.60
2023-05-04T06:25:43.701Z,6.53
2023-05-04T06:28:10.551Z,6.83
2023-05-04T06:30:37.439Z,6.50
2023-05-04T06:33:04.727Z,6.00
2023-05-04T06:35:31.845Z,6.27
2023-05-04T06:37:58.772Z,7.17
2023-05-04T06:40:26.678Z,6.40
2023-05-04T06:42:53.674Z,5.83
2023-05-04T06:45:20.590Z,5.30
2023-05-04T06:47:47.688Z,5.53
2023-05-04T06:50:15.160Z,5.73
2023-05-04T06:52:43.791Z,7.30
2023-05-04T06:55:11.021Z,7.20
2023-05-04T06:57:38.177Z,5.50
2023-05-04T07:00:06.339Z,6.27
2023-05-04T07:02:33.468Z,5.33
2023-05-04T07:05:01.136Z,6.87
2023-05-04T07:07:28.105Z,7.53
2023-05-04T07:09:54.967Z,6.50
2023-05-04T07:12:21.792Z,6.83
2023-05-04T07:14:48.658Z,7.30
2023-05-04T07:17:15.573Z,6.80
2023-05-04T07:19:42.522Z,7.30
2023-05-04T07:22:09.384Z,7.30
2023-05-04T07:24:36.246Z,7.13
2023-05-04T07:27:03.391Z,6.00
2023-05-04T07:29:30.247Z,6.10
2023-05-04T07:31:57.143Z,4.83
2023-05-04T07:34:33.954Z,5.33
2023-05-04T07:37:09.193Z,4.67
2023-05-04T07:39:36.842Z,5.47
2023-05-04T07:42:04.364Z,5.27
2023-05-04T07:44:31.753Z,4.37
2023-05-04T07:46:59.568Z,5.40
2023-05-04T07:49:27.101Z,6.13
2023-05-04T07:51:54.050Z,5.90
2023-05-04T07:54:22.589Z,4.97
2023-05-04T07:56:50.088Z,6.23
2023-05-04T07:59:20.541Z,5.73
2023-05-04T08:01:47.601Z,4.87
2023-05-04T08:04:14.466Z,5.60
2023-05-04T08:06:41.856Z,6.50
2023-05-04T08:09:09.051Z,4.70
2023-05-04T08:11:36.053Z,4.63
2023-05-04T08:14:02.992Z,5.43
2023-05-04T08:16:29.898Z,5.80
2023-05-04T08:18:57.468Z,4.87
2023-05-04T08:21:24.329Z,6.10
2023-05-04T08:23:51.324Z,6.50
2023-05-04T08:26:18.150Z,5.03
2023-05-04T08:28:46.276Z,5.50
2023-05-04T08:31:13.702Z,4.77
2023-05-04T08:33:40.687Z,5.47
2023-05-04T08:36:08.920Z,5.30
2023-05-04T08:38:36.046Z,5.30
2023-05-04T08:41:04.704Z,4.23
2023-05-04T08:43:34.553Z,5.07
2023-05-04T08:46:01.488Z,5.60
2023-05-04T08:48:28.386Z,4.57
2023-05-04T08:50:55.812Z,4.93
2023-05-04T08:53:23.710Z,4.20
2023-05-04T08:55:52.836Z,5.10
2023-05-04T08:58:22.358Z,4.83
2023-05-04T09:00:49.696Z,4.33
2023-05-04T09:03:17.433Z,5.20
2023-05-04T09:05:46.464Z,3.73
2023-05-04T09:08:14.098Z,3.90
2023-05-04T09:10:41.120Z,4.40
2023-05-04T09:13:08.684Z,4.87
2023-05-04T09:15:35.567Z,3.80
2023-05-04T09:18:06.751Z,4.00
2023-05-04T09:20:49.765Z,4.47
2023-05-04T09:23:18.319Z,4.90
2023-05-04T09:25:52.849Z,3.87
2023-05-04T09:28:23.000Z,4.73
2023-05-04T09:30:49.923Z,3.93
2023-05-04T09:33:17.004Z,3.67
2023-05-04T09:35:47.236Z,3.50
2023-05-04T09:38:31.701Z,3.77
2023-05-04T09:40:58.670Z,4.30
2023-05-04T09:43:25.466Z,4.20
2023-05-04T09:45:52.420Z,3.60
2023-05-04T09:48:25.865Z,5.03
2023-05-04T09:50:56.702Z,3.90
2023-05-04T09:53:25.433Z,3.13
2023-05-04T09:56:08.037Z,3.37
2023-05-04T09:58:36.037Z,3.70
2023-05-04T10:01:03.703Z,3.80
2023-05-04T10:03:31.933Z,4.00
2023-05-04T10:06:00.732Z,3.33
2023-05-04T10:08:28.750Z,3.40
2023-05-04T10:10:56.967Z,3.67
2023-05-04T10:13:24.845Z,4.73
2023-05-04T10:16:17.066Z,4.00
2023-05-04T10:19:11.678Z,3.27
2023-05-04T10:21:52.223Z,4.30
2023-05-04T10:24:34.315Z,3.93
2023-05-04T10:27:21.734Z,3.40
2023-05-04T10:29:50.956Z,3.40
2023-05-04T10:32:19.942Z,4.10
2023-05-04T10:34:47.460Z,3.57
2023-05-04T10:37:19.558Z,3.30
2023-05-04T10:39:56.307Z,3.27
2023-05-04T10:42:23.238Z,4.10
2023-05-04T10:44:57.229Z,3.30
2023-05-04T10:47:30.174Z,3.70
2023-05-04T10:50:15.851Z,3.77
2023-05-04T10:52:52.265Z,3.53
2023-05-04T10:55:20.340Z,3.73
2023-05-04T10:57:54.012Z,2.70
2023-05-04T11:00:21.410Z,3.40
2023-05-04T11:02:49.896Z,3.10
2023-05-04T11:05:20.526Z,3.67
2023-05-04T11:07:51.090Z,2.80
2023-05-04T11:10:23.269Z,3.47
2023-05-04T11:12:50.681Z,2.67
2023-05-04T11:15:18.287Z,2.83
2023-05-04T11:17:54.173Z,3.10
2023-05-04T11:20:27.480Z,3.70
2023-05-04T11:22:55.105Z,2.80
2023-05-04T11:25:29.132Z,3.10
2023-05-04T11:27:56.295Z,2.87
2023-05-04T11:30:34.408Z,3.10
2023-05-04T11:33:03.908Z,3.30
2023-05-04T11:35:31.049Z,2.90
2023-05-04T11:37:58.044Z,3.23
2023-05-04T11:40:27.143Z,2.90
2023-05-04T11:42:56.934Z,2.80
2023-05-04T11:45:27.419Z,2.70
2023-05-04T11:47:56.936Z,3.67
2023-05-04T11:50:25.528Z,3.53
2023-05-04T11:53:03.939Z,3.20
2023-05-04T11:55:31.736Z,3.77
2023-05-04T11:58:01.491Z,3.40
2023-05-04T12:00:58.058Z,3.07
2023-05-04T12:03:32.697Z,3.57
2023-05-04T12:06:10.993Z,3.10
2023-05-04T12:08:47.730Z,2.97
2023-05-04T12:11:26.123Z,3.10
2023-05-04T12:14:02.524Z,3.33
2023-05-04T12:16:29.562Z,2.80
2023-05-04T12:19:07.817Z,3.90
2023-05-04T12:21:35.482Z,3.70
2023-05-04T12:24:04.682Z,3.60
2023-05-04T12:26:31.600Z,2.90
2023-05-04T12:28:58.735Z,2.60
2023-05-04T12:31:25.837Z,2.77
2023-05-04T12:33:53.254Z,3.60
2023-05-04T12:36:20.149Z,2.83
2023-05-04T12:38:47.078Z,3.40
2023-05-04T12:41:14.020Z,4.23
2023-05-04T12:43:41.064Z,3.40
2023-05-04T12:46:08.055Z,3.50
2023-05-04T12:48:35.125Z,2.60
2023-05-04T12:51:04.341Z,2.73
2023-05-04T12:53:32.486Z,2.80
2023-05-04T12:56:00.679Z,3.30
2023-05-04T12:58:27.865Z,3.40
2023-05-04T13:00:55.665Z,3.33
2023-05-04T13:03:22.878Z,4.03
2023-05-04T13:05:50.048Z,3.60
2023-05-04T13:08:18.335Z,2.93
2023-05-04T13:10:46.512Z,3.03
2023-05-04T13:13:16.399Z,3.43
2023-05-04T13:15:44.383Z,3.03
2023-05-04T13:18:11.474Z,2.70
2023-05-04T13:20:39.304Z,4.00
2023-05-04T13:23:06.324Z,2.90
2023-05-04T13:25:33.420Z,3.07
2023-05-04T13:28:00.600Z,3.50
2023-05-04T13:30:28.269Z,3.60
2023-05-04T13:32:55.369Z,3.10
2023-05-04T13:35:24.015Z,3.47
2023-05-04T13:37:51.726Z,3.43
2023-05-04T13:40:18.712Z,2.97
2023-05-04T13:42:45.686Z,2.83
2023-05-04T13:45:13.372Z,3.20
2023-05-04T13:47:40.944Z,2.87
2023-05-04T13:50:08.727Z,2.77
2023-05-04T13:52:36.296Z,3.03
2023-05-04T13:55:03.559Z,2.87
2023-05-04T13:57:30.838Z,3.07
2023-05-04T14:00:05.731Z,3.60
2023-05-04T14:02:40.751Z,3.00
2023-05-04T14:05:08.544Z,2.73
2023-05-04T14:07:36.023Z,2.83
2023-05-04T14:10:03.475Z,2.80
2023-05-04T14:12:30.379Z,2.60
2023-05-04T14:14:57.647Z,3.10
2023-05-04T14:17:24.941Z,2.60
2023-05-04T14:19:51.786Z,2.80
2023-05-04T14:22:18.894Z,2.80
2023-05-04T14:24:45.682Z,3.30
2023-05-04T14:27:12.604Z,2.63
2023-05-04T14:29:39.528Z,2.87
2023-05-04T14:32:06.612Z,2.77
2023-05-04T14:34:33.687Z,2.80
2023-05-04T14:37:00.704Z,3.17
2023-05-04T14:39:27.553Z,2.40
2023-05-04T14:41:54.586Z,2.97
2023-05-04T14:44:22.853Z,2.70
2023-05-04T14:46:49.820Z,2.40
2023-05-04T14:49:28.307Z,2.87
2023-05-04T14:52:03.189Z,3.90
2023-05-04T14:54:30.063Z,2.30
2023-05-04T14:56:56.992Z,3.07
2023-05-04T14:59:23.817Z,3.33
2023-05-04T15:01:50.905Z,3.20
2023-05-04T15:04:17.899Z,3.00
2023-05-04T15:06:44.741Z,2.87
2023-05-04T15:09:11.766Z,2.50
2023-05-04T15:11:38.926Z,3.23
2023-05-04T15:14:05.755Z,2.77
2023-05-04T15:16:33.398Z,2.60
2023-05-04T15:19:00.559Z,2.50
2023-05-04T15:21:28.084Z,2.50
2023-05-04T15:23:55.212Z,2.60
2023-05-04T15:26:22.393Z,2.60
2023-05-04T15:28:49.944Z,2.73
2023-05-04T15:31:18.210Z,2.97
2023-05-04T15:33:45.224Z,2.50
2023-05-04T15:36:12.289Z,2.63
2023-05-04T15:38:39.208Z,2.13
2023-05-04T15:41:06.895Z,3.43
2023-05-04T15:43:34.409Z,2.77
2023-05-04T15:46:01.510Z,2.23
2023-05-04T15:48:28.402Z,2.77
2023-05-04T15:50:55.376Z,2.17
2023-05-04T15:53:22.314Z,2.20
2023-05-04T15:55:51.287Z,2.70
2023-05-04T15:58:18.649Z,2.83
2023-05-04T16:00:46.280Z,2.00
2023-05-04T16:03:13.210Z,2.20
2023-05-04T16:05:40.360Z,2.50
2023-05-04T16:08:07.185Z,2.60
2023-05-04T16:10:34.459Z,2.80
2023-05-04T16:13:04.455Z,3.20
2023-05-04T16:15:31.473Z,3.67
2023-05-04T16:17:58.450Z,2.70
2023-05-04T16:20:27.041Z,2.60
2023-05-04T16:22:53.904Z,2.70
2023-05-04T16:25:20.757Z,2.63
2023-05-04T16:27:47.738Z,2.53
2023-05-04T16:30:15.835Z,2.57
2023-05-04T16:32:42.796Z,2.97
2023-05-04T16:35:09.876Z,3.07
2023-05-04T16:37:38.332Z,2.33
2023-05-04T16:40:15.328Z,3.20
2023-05-04T16:42:43.066Z,2.90
2023-05-04T16:45:12.575Z,3.03
2023-05-04T16:47:41.180Z,2.50
2023-05-04T16:50:12.343Z,2.77
2023-05-04T16:52:40.206Z,3.10
2023-05-04T16:55:10.635Z,2.63
2023-05-04T16:57:38.603Z,3.13
2023-05-04T17:00:09.604Z,2.97
2023-05-04T17:02:36.779Z,2.97
2023-05-04T17:05:06.899Z,2.70
2023-05-04T17:07:34.326Z,2.80
2023-05-04T17:10:01.320Z,2.87
2023-05-04T17:12:29.169Z,2.40
2023-05-04T17:14:56.164Z,2.90
2023-05-04T17:17:23.098Z,2.70
2023-05-04T17:19:50.060Z,3.10
2023-05-04T17:22:17.769Z,2.73
2023-05-04T17:24:45.668Z,3.77
2023-05-04T17:27:13.317Z,2.80
2023-05-04T17:29:41.332Z,3.10
2023-05-04T17:32:08.620Z,3.50
2023-05-04T17:34:36.266Z,2.90
2023-05-04T17:37:03.348Z,3.20
2023-05-04T17:39:33.038Z,3.10
2023-05-04T17:42:00.168Z,3.00
2023-05-04T17:44:29.000Z,3.77
2023-05-04T17:46:56.488Z,3.20
2023-05-04T17:49:23.419Z,3.30
2023-05-04T17:51:50.384Z,3.60
2023-05-04T17:54:17.274Z,3.70
2023-05-04T17:56:44.217Z,3.53
2023-05-04T17:59:11.241Z,3.50
2023-05-04T18:01:38.151Z,3.40
2023-05-04T18:04:05.148Z,3.50
2023-05-04T18:06:32.963Z,3.13
2023-05-04T18:09:01.079Z,3.70
2023-05-04T18:11:28.305Z,3.73
2023-05-04T18:13:56.721Z,3.60
2023-05-04T18:16:24.600Z,3.50
2023-05-04T18:18:52.059Z,3.73
2023-05-04T18:21:19.008Z,4.10
2023-05-04T18:23:46.500Z,3.63
2023-05-04T18:26:22.658Z,4.13
2023-05-04T18:28:50.625Z,3.83
2023-05-04T18:31:17.804Z,3.80
2023-05-04T18:33:45.105Z,4.30
2023-05-04T18:36:12.331Z,4.47
2023-05-04T18:38:39.455Z,4.07
2023-05-04T18:41:06.380Z,3.63
2023-05-04T18:43:33.318Z,3.50
2023-05-04T18:46:07.381Z,4.10
2023-05-04T18:48:34.302Z,4.33
2023-05-04T18:51:01.351Z,4.10
2023-05-04T18:53:28.299Z,4.10
2023-05-04T18:56:05.838Z,5.83
2023-05-04T18:58:53.135Z,5.87
2023-05-04T19:01:20.084Z,4.90
2023-05-04T19:03:47.256Z,4.93
2023-05-04T19:06:14.167Z,5.57
2023-05-04T19:08:41.011Z,4.97
2023-05-04T19:11:08.074Z,4.33
2023-05-04T19:13:34.947Z,4.07
2023-05-04T19:16:01.850Z,4.30
2023-05-04T19:18:28.898Z,4.60
2023-05-04T19:20:55.786Z,4.53
2023-05-04T19:23:22.734Z,4.20
2023-05-04T19:25:49.607Z,5.03
2023-05-04T19:28:16.931Z,4.40
2023-05-04T19:30:43.940Z,4.17
2023-05-04T19:33:11.026Z,3.83
2023-05-04T19:35:38.021Z,4.43
2023-05-04T19:38:06.801Z,4.33
2023-05-04T19:40:34.537Z,5.00
2023-05-04T19:43:01.523Z,4.60
2023-05-04T19:45:28.359Z,5.20
2023-05-04T19:47:55.313Z,4.77
2023-05-04T19:50:22.466Z,4.30
2023-05-04T19:52:49.549Z,4.73
2023-05-04T19:55:19.331Z,5.00
2023-05-04T19:57:47.909Z,5.57
2023-05-04T20:00:35.380Z,5.20
2023-05-04T20:03:02.318Z,6.70
2023-05-04T20:05:29.400Z,5.40
2023-05-04T20:07:56.692Z,5.53
2023-05-04T20:10:23.713Z,5.40
2023-05-04T20:12:50.575Z,5.90
2023-05-04T20:15:17.615Z,6.23
2023-05-04T20:17:44.558Z,5.27
2023-05-04T20:20:12.101Z,5.57
2023-05-04T20:22:39.005Z,5.70
2023-05-04T20:25:05.997Z,5.77
2023-05-04T20:27:32.965Z,5.50
2023-05-04T20:30:00.187Z,6.37
2023-05-04T20:32:27.960Z,6.17
2023-05-04T20:34:54.846Z,7.03
2023-05-04T20:37:21.718Z,6.40
2023-05-04T20:39:52.081Z,6.00
2023-05-04T20:42:18.955Z,6.63
2023-05-04T20:44:45.857Z,6.60
2023-05-04T20:47:12.800Z,6.23
2023-05-04T20:49:39.688Z,9.27
2023-05-04T20:52:06.676Z,6.47
2023-05-04T20:54:33.541Z,5.83
2023-05-04T20:57:00.626Z,6.23
2023-05-04T20:59:27.612Z,6.40
2023-05-04T21:01:54.508Z,6.17
2023-05-04T21:04:21.776Z,5.50
2023-05-04T21:06:48.704Z,5.80
2023-05-04T21:09:15.846Z,9.17
2023-05-04T21:11:42.726Z,6.13
2023-05-04T21:14:09.614Z,5.73
2023-05-04T21:16:36.924Z,6.83
2023-05-04T21:19:03.791Z,6.13
2023-05-04T21:21:32.509Z,6.20
2023-05-04T21:23:59.369Z,5.90
2023-05-04T21:26:26.261Z,5.70
2023-05-04T21:28:53.186Z,5.63
2023-05-04T21:31:20.119Z,5.17
2023-05-04T21:33:47.046Z,5.83
2023-05-04T21:36:14.899Z,6.00
2023-05-04T21:38:42.873Z,7.90
2023-05-04T21:41:16.918Z,7.73
2023-05-04T21:43:44.618Z,7.27
2023-05-04T21:46:12.934Z,6.27
2023-05-04T21:48:40.635Z,7.03
2023-05-04T21:51:07.953Z,7.40
2023-05-04T21:53:34.888Z,6.60
2023-05-04T21:56:06.639Z,6.00
2023-05-04T21:58:33.614Z,6.43
2023-05-04T22:01:00.844Z,6.50
2023-05-04T22:03:29.887Z,6.57
2023-05-04T22:06:00.716Z,7.10
2023-05-04T22:08:28.745Z,7.73
2023-05-04T22:10:57.110Z,6.70
2023-05-04T22:13:24.143Z,5.80
2023-05-04T22:15:51.120Z,6.20
2023-05-04T22:18:18.203Z,5.70
2023-05-04T22:20:45.387Z,5.03
2023-05-04T22:23:13.135Z,6.07
2023-05-04T22:25:40.076Z,8.60
2023-05-04T22:28:06.983Z,5.57
2023-05-04T22:30:33.974Z,7.20
2023-05-04T22:33:01.066Z,6.97
2023-05-04T22:35:28.331Z,7.20
2023-05-04T22:37:55.281Z,5.90
2023-05-04T22:40:25.334Z,6.50
2023-05-04T22:42:52.374Z,7.60
2023-05-04T22:45:19.506Z,7.27
2023-05-04T22:47:49.299Z,7.37
2023-05-04T22:50:16.211Z,8.10
2023-05-04T22:52:43.199Z,7.70
2023-05-04T22:55:10.211Z,7.03
2023-05-04T22:57:37.231Z,7.67
2023-05-04T23:00:08.222Z,8.80
2023-05-04T23:02:35.998Z,10.30
2023-05-04T23:05:03.288Z,9.83
2023-05-04T23:07:30.163Z,9.80
2023-05-04T23:09:57.063Z,10.07
2023-05-04T23:12:24.173Z,8.30
2023-05-04T23:14:52.600Z,8.13
2023-05-04T23:17:19.831Z,8.30
2023-05-04T23:19:47.085Z,6.90
2023-05-04T23:22:15.053Z,6.00
2023-05-04T23:24:42.575Z,7.00
2023-05-04T23:27:10.152Z,6.27
2023-05-04T23:29:37.198Z,6.63
2023-05-04T23:32:04.630Z,7.30
2023-05-04T23:34:32.283Z,8.17
2023-05-04T23:37:00.374Z,7.17
2023-05-04T23:39:27.612Z,7.00
2023-05-04T23:41:54.621Z,7.03
2023-05-04T23:44:21.569Z,7.03
2023-05-04T23:46:48.510Z,6.80
2023-05-04T23:49:15.426Z,7.53
2023-05-04T23:51:42.430Z,7.30
2023-05-04T23:54:09.432Z,7.60
2023-05-04T23:56:36.688Z,7.87
2023-05-04T23:59:04.257Z,6.50
